sensor_id;sensor_type;location;lat;lon;timestamp;temperature;humidity
19019;DHT22;9642;50.842;4.348;2022-09-30T00:01:48;11.70;99.90
19019;DHT22;9642;50.842;4.348;2022-09-30T00:04:21;11.70;99.90
19019;DHT22;9642;50.842;4.348;2022-09-30T00:06:48;11.70;99.90
19019;DHT22;9642;50.842;4.348;2022-09-30T00:09:14;11.60;99.90
19019;DHT22;9642;50.842;4.348;2022-09-30T00:11:41;11.60;99.90
19019;DHT22;9642;50.842;4.348;2022-09-30T00:14:13;11.60;99.90
19019;DHT22;9642;50.842;4.348;2022-09-30T00:16:39;11.70;99.90
19019;DHT22;9642;50.842;4.348;2022-09-30T00:19:05;11.80;99.90
19019;DHT22;9642;50.842;4.348;2022-09-30T00:21:32;11.80;99.90
19019;DHT22;9642;50.842;4.348;2022-09-30T00:24:02;11.70;99.90
19019;DHT22;9642;50.842;4.348;2022-09-30T00:26:28;11.60;99.90
19019;DHT22;9642;50.842;4.348;2022-09-30T00:28:56;11.50;99.90
19019;DHT22;9642;50.842;4.348;2022-09-30T00:31:23;11.50;99.90
19019;DHT22;9642;50.842;4.348;2022-09-30T00:33:50;11.40;99.90
19019;DHT22;9642;50.842;4.348;2022-09-30T00:39:31;11.40;99.90
19019;DHT22;9642;50.842;4.348;2022-09-30T00:41:59;11.30;99.90
19019;DHT22;9642;50.842;4.348;2022-09-30T00:48:11;11.30;99.90
19019;DHT22;9642;50.842;4.348;2022-09-30T00:53:18;11.20;99.90
19019;DHT22;9642;50.842;4.348;2022-09-30T00:58:28;11.10;99.90
19019;DHT22;9642;50.842;4.348;2022-09-30T01:00:57;11.10;99.90
19019;DHT22;9642;50.842;4.348;2022-09-30T01:03:27;11.10;99.90
19019;DHT22;9642;50.842;4.348;2022-09-30T01:05:53;11.20;99.90
19019;DHT22;9642;50.842;4.348;2022-09-30T01:08:22;11.10;99.90
19019;DHT22;9642;50.842;4.348;2022-09-30T01:10:48;11.10;99.90
19019;DHT22;9642;50.842;4.348;2022-09-30T01:13:15;11.20;99.90
19019;DHT22;9642;50.842;4.348;2022-09-30T01:21:24;11.10;99.90
19019;DHT22;9642;50.842;4.348;2022-09-30T01:27:09;11.10;99.90
19019;DHT22;9642;50.842;4.348;2022-09-30T01:32:34;11.00;99.90
19019;DHT22;9642;50.842;4.348;2022-09-30T01:35:06;10.90;99.90
19019;DHT22;9642;50.842;4.348;2022-09-30T01:37:49;11.00;99.90
19019;DHT22;9642;50.842;4.348;2022-09-30T01:40:27;10.90;99.90
19019;DHT22;9642;50.842;4.348;2022-09-30T01:43:11;10.90;99.90
19019;DHT22;9642;50.842;4.348;2022-09-30T01:45:47;10.80;99.90
19019;DHT22;9642;50.842;4.348;2022-09-30T01:48:34;10.70;99.90
19019;DHT22;9642;50.842;4.348;2022-09-30T01:51:14;10.70;99.90
19019;DHT22;9642;50.842;4.348;2022-09-30T01:53:46;10.80;99.90
19019;DHT22;9642;50.842;4.348;2022-09-30T01:56:21;10.80;99.90
19019;DHT22;9642;50.842;4.348;2022-09-30T01:58:56;10.70;99.90
19019;DHT22;9642;50.842;4.348;2022-09-30T02:01:36;10.60;99.90
19019;DHT22;9642;50.842;4.348;2022-09-30T02:04:12;10.60;99.90
19019;DHT22;9642;50.842;4.348;2022-09-30T02:06:43;10.60;99.90
19019;DHT22;9642;50.842;4.348;2022-09-30T02:09:20;10.50;99.90
19019;DHT22;9642;50.842;4.348;2022-09-30T02:11:48;10.60;99.90
19019;DHT22;9642;50.842;4.348;2022-09-30T02:14:22;10.70;99.90
19019;DHT22;9642;50.842;4.348;2022-09-30T02:16:59;10.60;99.90
19019;DHT22;9642;50.842;4.348;2022-09-30T02:19:38;10.50;99.90
19019;DHT22;9642;50.842;4.348;2022-09-30T02:24:43;10.40;99.90
19019;DHT22;9642;50.842;4.348;2022-09-30T02:27:20;10.30;99.90
19019;DHT22;9642;50.842;4.348;2022-09-30T02:29:51;10.30;99.90
19019;DHT22;9642;50.842;4.348;2022-09-30T02:32:26;10.40;99.90
19019;DHT22;9642;50.842;4.348;2022-09-30T02:35:05;10.40;99.90
19019;DHT22;9642;50.842;4.348;2022-09-30T02:37:39;10.50;99.90
19019;DHT22;9642;50.842;4.348;2022-09-30T02:40:26;10.50;99.90
19019;DHT22;9642;50.842;4.348;2022-09-30T02:42:52;10.40;99.90
19019;DHT22;9642;50.842;4.348;2022-09-30T02:45:21;10.50;99.90
19019;DHT22;9642;50.842;4.348;2022-09-30T02:50:43;10.50;99.90
19019;DHT22;9642;50.842;4.348;2022-09-30T02:53:26;10.50;99.90
19019;DHT22;9642;50.842;4.348;2022-09-30T02:58:42;10.60;99.90
19019;DHT22;9642;50.842;4.348;2022-09-30T03:01:13;10.50;99.90
19019;DHT22;9642;50.842;4.348;2022-09-30T03:04:06;10.40;99.90
19019;DHT22;9642;50.842;4.348;2022-09-30T03:06:31;10.40;99.90
19019;DHT22;9642;50.842;4.348;2022-09-30T03:08:59;10.50;99.90
19019;DHT22;9642;50.842;4.348;2022-09-30T03:11:27;10.50;99.90
19019;DHT22;9642;50.842;4.348;2022-09-30T03:17:05;10.40;99.90
19019;DHT22;9642;50.842;4.348;2022-09-30T03:22:35;10.40;99.90
19019;DHT22;9642;50.842;4.348;2022-09-30T03:28:15;10.50;99.90
19019;DHT22;9642;50.842;4.348;2022-09-30T03:30:51;10.30;99.90
19019;DHT22;9642;50.842;4.348;2022-09-30T03:39:02;10.10;99.90
19019;DHT22;9642;50.842;4.348;2022-09-30T03:44:10;10.10;99.90
19019;DHT22;9642;50.842;4.348;2022-09-30T03:46:47;10.00;99.90
19019;DHT22;9642;50.842;4.348;2022-09-30T03:49:20;9.90;99.90
19019;DHT22;9642;50.842;4.348;2022-09-30T03:51:49;9.80;99.90
19019;DHT22;9642;50.842;4.348;2022-09-30T03:54:15;9.80;99.90
19019;DHT22;9642;50.842;4.348;2022-09-30T03:56:41;9.70;99.90
19019;DHT22;9642;50.842;4.348;2022-09-30T03:59:11;9.70;99.90
19019;DHT22;9642;50.842;4.348;2022-09-30T04:01:37;9.60;99.90
19019;DHT22;9642;50.842;4.348;2022-09-30T04:04:04;9.60;99.90
19019;DHT22;9642;50.842;4.348;2022-09-30T04:06:30;9.60;99.90
19019;DHT22;9642;50.842;4.348;2022-09-30T04:08:56;9.60;99.90
19019;DHT22;9642;50.842;4.348;2022-09-30T04:11:22;9.60;99.90
19019;DHT22;9642;50.842;4.348;2022-09-30T04:13:48;9.60;99.90
19019;DHT22;9642;50.842;4.348;2022-09-30T04:16:13;9.60;99.90
19019;DHT22;9642;50.842;4.348;2022-09-30T04:18:39;9.60;99.90
19019;DHT22;9642;50.842;4.348;2022-09-30T04:21:10;9.60;99.90
19019;DHT22;9642;50.842;4.348;2022-09-30T04:23:38;9.70;99.90
19019;DHT22;9642;50.842;4.348;2022-09-30T04:26:05;9.70;99.90
19019;DHT22;9642;50.842;4.348;2022-09-30T04:28:32;9.70;99.90
19019;DHT22;9642;50.842;4.348;2022-09-30T04:31:02;9.80;99.90
19019;DHT22;9642;50.842;4.348;2022-09-30T04:33:28;9.70;99.90
19019;DHT22;9642;50.842;4.348;2022-09-30T04:35:55;9.80;99.90
19019;DHT22;9642;50.842;4.348;2022-09-30T04:38:21;9.70;99.90
19019;DHT22;9642;50.842;4.348;2022-09-30T04:40:50;9.70;99.90
19019;DHT22;9642;50.842;4.348;2022-09-30T04:43:17;9.70;99.90
19019;DHT22;9642;50.842;4.348;2022-09-30T04:45:44;9.70;99.90
19019;DHT22;9642;50.842;4.348;2022-09-30T04:48:14;9.80;99.90
19019;DHT22;9642;50.842;4.348;2022-09-30T04:50:41;9.80;99.90
19019;DHT22;9642;50.842;4.348;2022-09-30T04:53:08;9.70;99.90
19019;DHT22;9642;50.842;4.348;2022-09-30T04:55:35;9.70;99.90
19019;DHT22;9642;50.842;4.348;2022-09-30T04:58:01;9.80;99.90
19019;DHT22;9642;50.842;4.348;2022-09-30T05:00:27;9.70;99.90
19019;DHT22;9642;50.842;4.348;2022-09-30T05:02:53;9.80;99.90
19019;DHT22;9642;50.842;4.348;2022-09-30T05:05:19;9.70;99.90
19019;DHT22;9642;50.842;4.348;2022-09-30T05:07:44;9.70;99.90
19019;DHT22;9642;50.842;4.348;2022-09-30T05:10:11;9.60;99.90
19019;DHT22;9642;50.842;4.348;2022-09-30T05:12:38;9.70;99.90
19019;DHT22;9642;50.842;4.348;2022-09-30T05:15:05;9.70;99.90
19019;DHT22;9642;50.842;4.348;2022-09-30T05:17:32;9.70;99.90
19019;DHT22;9642;50.842;4.348;2022-09-30T05:19:58;9.60;99.90
19019;DHT22;9642;50.842;4.348;2022-09-30T05:22:25;9.60;99.90
19019;DHT22;9642;50.842;4.348;2022-09-30T05:24:52;9.70;99.90
19019;DHT22;9642;50.842;4.348;2022-09-30T05:27:18;9.60;99.90
19019;DHT22;9642;50.842;4.348;2022-09-30T05:29:44;9.70;99.90
19019;DHT22;9642;50.842;4.348;2022-09-30T05:32:11;9.80;99.90
19019;DHT22;9642;50.842;4.348;2022-09-30T05:34:37;9.70;99.90
19019;DHT22;9642;50.842;4.348;2022-09-30T05:37:07;9.70;99.90
19019;DHT22;9642;50.842;4.348;2022-09-30T05:39:34;9.70;99.90
19019;DHT22;9642;50.842;4.348;2022-09-30T05:42:01;9.70;99.90
19019;DHT22;9642;50.842;4.348;2022-09-30T05:44:27;9.70;99.90
19019;DHT22;9642;50.842;4.348;2022-09-30T05:46:53;9.70;99.90
19019;DHT22;9642;50.842;4.348;2022-09-30T05:49:18;9.70;99.90
19019;DHT22;9642;50.842;4.348;2022-09-30T05:51:44;9.70;99.90
19019;DHT22;9642;50.842;4.348;2022-09-30T05:54:10;9.80;99.90
19019;DHT22;9642;50.842;4.348;2022-09-30T05:56:37;9.80;99.90
19019;DHT22;9642;50.842;4.348;2022-09-30T05:59:04;9.90;99.90
19019;DHT22;9642;50.842;4.348;2022-09-30T06:01:30;9.90;99.90
19019;DHT22;9642;50.842;4.348;2022-09-30T06:03:56;9.90;99.90
19019;DHT22;9642;50.842;4.348;2022-09-30T06:06:22;9.90;99.90
19019;DHT22;9642;50.842;4.348;2022-09-30T06:08:48;9.90;99.90
19019;DHT22;9642;50.842;4.348;2022-09-30T06:11:18;9.90;99.90
19019;DHT22;9642;50.842;4.348;2022-09-30T06:13:46;9.90;99.90
19019;DHT22;9642;50.842;4.348;2022-09-30T06:16:13;10.00;99.90
19019;DHT22;9642;50.842;4.348;2022-09-30T06:18:43;10.00;99.90
19019;DHT22;9642;50.842;4.348;2022-09-30T06:21:18;9.90;99.90
19019;DHT22;9642;50.842;4.348;2022-09-30T06:23:55;10.00;99.90
19019;DHT22;9642;50.842;4.348;2022-09-30T06:26:22;10.00;99.90
19019;DHT22;9642;50.842;4.348;2022-09-30T06:28:47;10.00;99.90
19019;DHT22;9642;50.842;4.348;2022-09-30T06:31:16;10.00;99.90
19019;DHT22;9642;50.842;4.348;2022-09-30T06:33:42;10.00;99.90
19019;DHT22;9642;50.842;4.348;2022-09-30T06:36:08;9.90;99.90
19019;DHT22;9642;50.842;4.348;2022-09-30T06:38:35;10.00;99.90
19019;DHT22;9642;50.842;4.348;2022-09-30T06:41:05;10.00;99.90
19019;DHT22;9642;50.842;4.348;2022-09-30T06:43:31;10.00;99.90
19019;DHT22;9642;50.842;4.348;2022-09-30T06:45:57;10.00;99.90
19019;DHT22;9642;50.842;4.348;2022-09-30T06:48:24;10.10;99.90
19019;DHT22;9642;50.842;4.348;2022-09-30T06:50:50;10.10;99.90
19019;DHT22;9642;50.842;4.348;2022-09-30T06:53:20;10.00;99.90
19019;DHT22;9642;50.842;4.348;2022-09-30T06:55:47;10.00;99.90
19019;DHT22;9642;50.842;4.348;2022-09-30T06:58:14;10.00;99.90
19019;DHT22;9642;50.842;4.348;2022-09-30T07:00:41;10.10;99.90
19019;DHT22;9642;50.842;4.348;2022-09-30T07:03:11;10.20;99.90
19019;DHT22;9642;50.842;4.348;2022-09-30T07:05:44;10.10;99.90
19019;DHT22;9642;50.842;4.348;2022-09-30T07:08:10;10.00;99.90
19019;DHT22;9642;50.842;4.348;2022-09-30T07:10:36;10.10;99.90
19019;DHT22;9642;50.842;4.348;2022-09-30T07:13:03;10.10;99.90
19019;DHT22;9642;50.842;4.348;2022-09-30T07:15:30;10.20;99.90
19019;DHT22;9642;50.842;4.348;2022-09-30T07:17:55;10.30;99.90
19019;DHT22;9642;50.842;4.348;2022-09-30T07:20:22;10.40;99.90
19019;DHT22;9642;50.842;4.348;2022-09-30T07:22:48;10.50;99.90
19019;DHT22;9642;50.842;4.348;2022-09-30T07:25:14;10.60;99.90
19019;DHT22;9642;50.842;4.348;2022-09-30T07:27:40;10.60;99.90
19019;DHT22;9642;50.842;4.348;2022-09-30T07:30:07;10.70;99.90
19019;DHT22;9642;50.842;4.348;2022-09-30T07:32:33;10.80;99.90
19019;DHT22;9642;50.842;4.348;2022-09-30T07:34:59;10.90;99.90
19019;DHT22;9642;50.842;4.348;2022-09-30T07:37:26;11.00;99.90
19019;DHT22;9642;50.842;4.348;2022-09-30T07:39:52;11.00;99.90
19019;DHT22;9642;50.842;4.348;2022-09-30T07:42:18;11.00;99.90
19019;DHT22;9642;50.842;4.348;2022-09-30T07:44:47;10.90;99.90
19019;DHT22;9642;50.842;4.348;2022-09-30T07:47:14;10.90;99.90
19019;DHT22;9642;50.842;4.348;2022-09-30T07:49:41;11.00;99.90
19019;DHT22;9642;50.842;4.348;2022-09-30T07:52:09;11.10;99.90
19019;DHT22;9642;50.842;4.348;2022-09-30T07:54:36;11.00;99.90
19019;DHT22;9642;50.842;4.348;2022-09-30T07:57:03;11.10;99.90
19019;DHT22;9642;50.842;4.348;2022-09-30T07:59:34;11.20;99.90
19019;DHT22;9642;50.842;4.348;2022-09-30T08:02:00;11.20;99.90
19019;DHT22;9642;50.842;4.348;2022-09-30T08:04:27;11.30;99.90
19019;DHT22;9642;50.842;4.348;2022-09-30T08:06:58;11.50;99.90
19019;DHT22;9642;50.842;4.348;2022-09-30T08:09:26;11.80;99.90
19019;DHT22;9642;50.842;4.348;2022-09-30T08:11:53;11.90;99.90
19019;DHT22;9642;50.842;4.348;2022-09-30T08:14:25;12.00;99.90
19019;DHT22;9642;50.842;4.348;2022-09-30T08:16:51;12.00;99.90
19019;DHT22;9642;50.842;4.348;2022-09-30T08:19:20;12.00;99.90
19019;DHT22;9642;50.842;4.348;2022-09-30T08:21:46;12.00;99.90
19019;DHT22;9642;50.842;4.348;2022-09-30T08:24:13;12.10;99.90
19019;DHT22;9642;50.842;4.348;2022-09-30T08:26:39;12.20;99.90
19019;DHT22;9642;50.842;4.348;2022-09-30T08:29:06;12.40;99.90
19019;DHT22;9642;50.842;4.348;2022-09-30T08:31:32;12.50;99.90
19019;DHT22;9642;50.842;4.348;2022-09-30T08:33:59;12.50;99.90
19019;DHT22;9642;50.842;4.348;2022-09-30T08:36:26;12.50;99.90
19019;DHT22;9642;50.842;4.348;2022-09-30T08:38:52;12.70;99.90
19019;DHT22;9642;50.842;4.348;2022-09-30T08:44:00;12.70;99.90
19019;DHT22;9642;50.842;4.348;2022-09-30T08:46:44;12.70;99.90
19019;DHT22;9642;50.842;4.348;2022-09-30T08:51:57;12.80;99.90
19019;DHT22;9642;50.842;4.348;2022-09-30T08:54:29;13.10;99.90
19019;DHT22;9642;50.842;4.348;2022-09-30T08:56:56;13.30;99.90
19019;DHT22;9642;50.842;4.348;2022-09-30T08:59:43;13.40;99.90
19019;DHT22;9642;50.842;4.348;2022-09-30T09:02:22;13.40;99.90
19019;DHT22;9642;50.842;4.348;2022-09-30T09:04:49;13.30;99.90
19019;DHT22;9642;50.842;4.348;2022-09-30T09:12:57;13.80;99.90
19019;DHT22;9642;50.842;4.348;2022-09-30T09:15:39;13.90;99.90
19019;DHT22;9642;50.842;4.348;2022-09-30T09:20:58;13.90;99.90
19019;DHT22;9642;50.842;4.348;2022-09-30T09:23:26;14.00;99.90
19019;DHT22;9642;50.842;4.348;2022-09-30T09:25:55;14.10;99.90
19019;DHT22;9642;50.842;4.348;2022-09-30T09:28:23;14.30;99.90
19019;DHT22;9642;50.842;4.348;2022-09-30T09:30:55;14.50;99.90
19019;DHT22;9642;50.842;4.348;2022-09-30T09:33:25;14.60;99.90
19019;DHT22;9642;50.842;4.348;2022-09-30T09:36:30;14.70;99.90
19019;DHT22;9642;50.842;4.348;2022-09-30T09:45:01;15.00;99.90
19019;DHT22;9642;50.842;4.348;2022-09-30T09:47:28;15.00;99.90
19019;DHT22;9642;50.842;4.348;2022-09-30T09:49:57;15.00;99.90
19019;DHT22;9642;50.842;4.348;2022-09-30T09:52:36;15.20;99.90
19019;DHT22;9642;50.842;4.348;2022-09-30T09:55:05;15.30;99.90
19019;DHT22;9642;50.842;4.348;2022-09-30T09:57:31;15.40;99.90
19019;DHT22;9642;50.842;4.348;2022-09-30T10:00:08;15.50;99.60
19019;DHT22;9642;50.842;4.348;2022-09-30T10:03:10;15.60;99.20
19019;DHT22;9642;50.842;4.348;2022-09-30T10:05:37;15.60;99.20
19019;DHT22;9642;50.842;4.348;2022-09-30T10:08:17;15.70;99.10
19019;DHT22;9642;50.842;4.348;2022-09-30T10:10:46;15.90;99.00
19019;DHT22;9642;50.842;4.348;2022-09-30T10:13:21;16.10;99.10
19019;DHT22;9642;50.842;4.348;2022-09-30T10:15:49;16.80;98.30
19019;DHT22;9642;50.842;4.348;2022-09-30T10:18:22;17.80;95.40
19019;DHT22;9642;50.842;4.348;2022-09-30T10:20:54;18.70;94.30
19019;DHT22;9642;50.842;4.348;2022-09-30T10:23:37;20.40;91.30
19019;DHT22;9642;50.842;4.348;2022-09-30T10:31:23;24.10;76.60
19019;DHT22;9642;50.842;4.348;2022-09-30T10:34:02;24.30;74.90
19019;DHT22;9642;50.842;4.348;2022-09-30T10:36:35;24.70;74.60
19019;DHT22;9642;50.842;4.348;2022-09-30T10:39:17;24.70;73.40
19019;DHT22;9642;50.842;4.348;2022-09-30T10:41:44;24.50;71.80
19019;DHT22;9642;50.842;4.348;2022-09-30T10:44:15;24.90;69.50
19019;DHT22;9642;50.842;4.348;2022-09-30T10:46:44;24.40;71.60
19019;DHT22;9642;50.842;4.348;2022-09-30T10:49:34;24.30;71.80
19019;DHT22;9642;50.842;4.348;2022-09-30T10:52:01;24.40;72.90
19019;DHT22;9642;50.842;4.348;2022-09-30T10:54:53;24.60;72.40
19019;DHT22;9642;50.842;4.348;2022-09-30T10:57:25;24.70;72.60
19019;DHT22;9642;50.842;4.348;2022-09-30T11:00:15;24.40;72.80
19019;DHT22;9642;50.842;4.348;2022-09-30T11:03:04;24.00;74.10
19019;DHT22;9642;50.842;4.348;2022-09-30T11:05:34;24.50;72.00
19019;DHT22;9642;50.842;4.348;2022-09-30T11:08:23;23.60;72.80
19019;DHT22;9642;50.842;4.348;2022-09-30T11:11:41;24.50;72.20
19019;DHT22;9642;50.842;4.348;2022-09-30T11:17:27;25.50;66.10
19019;DHT22;9642;50.842;4.348;2022-09-30T11:22:42;23.80;68.50
19019;DHT22;9642;50.842;4.348;2022-09-30T11:34:23;25.40;65.60
19019;DHT22;9642;50.842;4.348;2022-09-30T11:37:18;24.00;67.50
19019;DHT22;9642;50.842;4.348;2022-09-30T11:39:59;22.60;70.20
19019;DHT22;9642;50.842;4.348;2022-09-30T11:45:31;20.90;79.60
19019;DHT22;9642;50.842;4.348;2022-09-30T11:48:25;22.00;77.70
19019;DHT22;9642;50.842;4.348;2022-09-30T11:51:21;23.00;74.20
19019;DHT22;9642;50.842;4.348;2022-09-30T11:59:30;22.00;77.20
19019;DHT22;9642;50.842;4.348;2022-09-30T12:02:01;21.40;78.90
19019;DHT22;9642;50.842;4.348;2022-09-30T12:04:35;20.30;82.80
19019;DHT22;9642;50.842;4.348;2022-09-30T12:07:21;19.60;86.50
19019;DHT22;9642;50.842;4.348;2022-09-30T12:09:52;19.30;87.90
19019;DHT22;9642;50.842;4.348;2022-09-30T12:12:20;20.40;85.00
19019;DHT22;9642;50.842;4.348;2022-09-30T12:15:00;21.70;81.00
19019;DHT22;9642;50.842;4.348;2022-09-30T12:19:56;23.30;74.40
19019;DHT22;9642;50.842;4.348;2022-09-30T12:22:30;23.40;74.20
19019;DHT22;9642;50.842;4.348;2022-09-30T12:24:59;23.30;73.80
19019;DHT22;9642;50.842;4.348;2022-09-30T12:27:35;22.70;74.70
19019;DHT22;9642;50.842;4.348;2022-09-30T12:30:19;21.80;77.80
19019;DHT22;9642;50.842;4.348;2022-09-30T12:33:16;21.30;79.10
19019;DHT22;9642;50.842;4.348;2022-09-30T12:36:08;21.00;80.80
19019;DHT22;9642;50.842;4.348;2022-09-30T12:49:35;19.50;87.50
19019;DHT22;9642;50.842;4.348;2022-09-30T12:52:05;20.20;85.80
19019;DHT22;9642;50.842;4.348;2022-09-30T12:54:34;21.10;82.00
19019;DHT22;9642;50.842;4.348;2022-09-30T12:57:04;21.40;80.10
19019;DHT22;9642;50.842;4.348;2022-09-30T12:59:36;21.20;79.80
19019;DHT22;9642;50.842;4.348;2022-09-30T13:02:04;20.90;81.40
19019;DHT22;9642;50.842;4.348;2022-09-30T13:04:33;20.80;81.90
19019;DHT22;9642;50.842;4.348;2022-09-30T13:14:34;20.10;83.30
19019;DHT22;9642;50.842;4.348;2022-09-30T13:19:53;19.70;86.50
19019;DHT22;9642;50.842;4.348;2022-09-30T13:27:39;19.20;86.50
19019;DHT22;9642;50.842;4.348;2022-09-30T13:35:35;19.10;86.90
19019;DHT22;9642;50.842;4.348;2022-09-30T13:41:01;18.60;90.20
19019;DHT22;9642;50.842;4.348;2022-09-30T13:43:37;18.30;91.00
19019;DHT22;9642;50.842;4.348;2022-09-30T13:48:59;18.40;90.90
19019;DHT22;9642;50.842;4.348;2022-09-30T13:51:29;18.30;91.20
19019;DHT22;9642;50.842;4.348;2022-09-30T13:54:01;18.60;90.50
19019;DHT22;9642;50.842;4.348;2022-09-30T13:56:42;18.60;90.40
19019;DHT22;9642;50.842;4.348;2022-09-30T13:59:26;18.40;90.80
19019;DHT22;9642;50.842;4.348;2022-09-30T14:08:06;18.60;90.20
19019;DHT22;9642;50.842;4.348;2022-09-30T14:10:46;18.70;90.20
19019;DHT22;9642;50.842;4.348;2022-09-30T14:13:42;18.70;90.40
19019;DHT22;9642;50.842;4.348;2022-09-30T14:19:12;18.40;90.40
19019;DHT22;9642;50.842;4.348;2022-09-30T14:21:56;18.60;90.40
19019;DHT22;9642;50.842;4.348;2022-09-30T14:24:26;18.60;89.10
19019;DHT22;9642;50.842;4.348;2022-09-30T14:32:29;18.40;89.80
19019;DHT22;9642;50.842;4.348;2022-09-30T14:34:57;18.50;90.00
19019;DHT22;9642;50.842;4.348;2022-09-30T14:37:29;18.30;90.00
19019;DHT22;9642;50.842;4.348;2022-09-30T14:39:57;18.40;90.00
19019;DHT22;9642;50.842;4.348;2022-09-30T14:42:28;18.40;89.30
19019;DHT22;9642;50.842;4.348;2022-09-30T14:44:57;18.20;89.70
19019;DHT22;9642;50.842;4.348;2022-09-30T14:47:35;18.20;89.60
19019;DHT22;9642;50.842;4.348;2022-09-30T14:50:09;18.30;89.50
19019;DHT22;9642;50.842;4.348;2022-09-30T14:52:47;18.40;89.10
19019;DHT22;9642;50.842;4.348;2022-09-30T14:57:54;18.60;88.50
19019;DHT22;9642;50.842;4.348;2022-09-30T15:00:28;18.80;88.10
19019;DHT22;9642;50.842;4.348;2022-09-30T15:02:54;18.90;88.70
19019;DHT22;9642;50.842;4.348;2022-09-30T15:05:27;18.90;87.50
19019;DHT22;9642;50.842;4.348;2022-09-30T15:07:53;18.80;88.00
19019;DHT22;9642;50.842;4.348;2022-09-30T15:10:24;18.80;87.70
19019;DHT22;9642;50.842;4.348;2022-09-30T15:12:51;18.70;88.20
19019;DHT22;9642;50.842;4.348;2022-09-30T15:15:37;18.50;88.50
19019;DHT22;9642;50.842;4.348;2022-09-30T15:20:58;18.30;90.00
19019;DHT22;9642;50.842;4.348;2022-09-30T15:23:29;18.10;89.80
19019;DHT22;9642;50.842;4.348;2022-09-30T15:25:56;18.00;90.10
19019;DHT22;9642;50.842;4.348;2022-09-30T15:28:23;17.90;90.00
19019;DHT22;9642;50.842;4.348;2022-09-30T15:30:52;17.70;90.40
19019;DHT22;9642;50.842;4.348;2022-09-30T15:33:23;17.60;90.70
19019;DHT22;9642;50.842;4.348;2022-09-30T15:36:11;17.60;90.50
19019;DHT22;9642;50.842;4.348;2022-09-30T15:38:39;17.60;90.50
19019;DHT22;9642;50.842;4.348;2022-09-30T15:41:10;17.60;90.50
19019;DHT22;9642;50.842;4.348;2022-09-30T15:43:38;17.60;91.00
19019;DHT22;9642;50.842;4.348;2022-09-30T15:51:47;17.60;91.00
19019;DHT22;9642;50.842;4.348;2022-09-30T15:56:41;17.30;91.60
19019;DHT22;9642;50.842;4.348;2022-09-30T15:59:12;17.30;91.60
19019;DHT22;9642;50.842;4.348;2022-09-30T16:01:48;17.30;91.70
19019;DHT22;9642;50.842;4.348;2022-09-30T16:04:22;17.30;91.40
19019;DHT22;9642;50.842;4.348;2022-09-30T16:07:08;17.20;91.70
19019;DHT22;9642;50.842;4.348;2022-09-30T16:09:37;17.10;92.00
19019;DHT22;9642;50.842;4.348;2022-09-30T16:15:14;17.00;92.70
19019;DHT22;9642;50.842;4.348;2022-09-30T16:17:35;17.00;92.60
19019;DHT22;9642;50.842;4.348;2022-09-30T16:20:21;17.00;92.50
19019;DHT22;9642;50.842;4.348;2022-09-30T16:25:29;17.00;92.90
19019;DHT22;9642;50.842;4.348;2022-09-30T16:27:59;17.10;92.50
19019;DHT22;9642;50.842;4.348;2022-09-30T16:30:27;17.20;92.50
19019;DHT22;9642;50.842;4.348;2022-09-30T16:32:56;17.00;92.70
19019;DHT22;9642;50.842;4.348;2022-09-30T16:35:24;16.90;93.00
19019;DHT22;9642;50.842;4.348;2022-09-30T16:38:01;16.90;93.20
19019;DHT22;9642;50.842;4.348;2022-09-30T16:40:28;16.80;93.10
19019;DHT22;9642;50.842;4.348;2022-09-30T16:42:54;16.80;93.30
19019;DHT22;9642;50.842;4.348;2022-09-30T16:45:25;16.80;93.20
19019;DHT22;9642;50.842;4.348;2022-09-30T16:47:51;16.80;93.10
19019;DHT22;9642;50.842;4.348;2022-09-30T16:50:39;16.80;93.00
19019;DHT22;9642;50.842;4.348;2022-09-30T16:53:06;16.60;93.20
19019;DHT22;9642;50.842;4.348;2022-09-30T16:55:36;16.60;93.20
19019;DHT22;9642;50.842;4.348;2022-09-30T16:58:02;16.70;93.10
19019;DHT22;9642;50.842;4.348;2022-09-30T17:00:30;16.60;93.50
19019;DHT22;9642;50.842;4.348;2022-09-30T17:02:58;16.60;93.30
19019;DHT22;9642;50.842;4.348;2022-09-30T17:05:25;16.60;93.30
19019;DHT22;9642;50.842;4.348;2022-09-30T17:07:56;16.60;93.50
19019;DHT22;9642;50.842;4.348;2022-09-30T17:10:28;16.50;93.60
19019;DHT22;9642;50.842;4.348;2022-09-30T17:12:56;16.60;93.60
19019;DHT22;9642;50.842;4.348;2022-09-30T17:15:27;16.50;93.60
19019;DHT22;9642;50.842;4.348;2022-09-30T17:17:54;16.60;93.40
19019;DHT22;9642;50.842;4.348;2022-09-30T17:20:21;16.50;93.50
19019;DHT22;9642;50.842;4.348;2022-09-30T17:22:48;16.50;93.40
19019;DHT22;9642;50.842;4.348;2022-09-30T17:25:15;16.50;93.40
19019;DHT22;9642;50.842;4.348;2022-09-30T17:27:45;16.50;93.00
19019;DHT22;9642;50.842;4.348;2022-09-30T17:30:14;16.50;93.10
19019;DHT22;9642;50.842;4.348;2022-09-30T17:32:43;16.40;93.20
19019;DHT22;9642;50.842;4.348;2022-09-30T17:35:09;16.30;93.20
19019;DHT22;9642;50.842;4.348;2022-09-30T17:37:36;16.30;93.20
19019;DHT22;9642;50.842;4.348;2022-09-30T17:40:06;16.30;93.30
19019;DHT22;9642;50.842;4.348;2022-09-30T17:42:50;16.20;93.50
19019;DHT22;9642;50.842;4.348;2022-09-30T17:45:35;16.10;93.60
19019;DHT22;9642;50.842;4.348;2022-09-30T17:48:03;16.10;93.90
19019;DHT22;9642;50.842;4.348;2022-09-30T17:50:33;16.10;93.80
19019;DHT22;9642;50.842;4.348;2022-09-30T17:52:59;16.20;93.80
19019;DHT22;9642;50.842;4.348;2022-09-30T17:55:27;16.10;93.80
19019;DHT22;9642;50.842;4.348;2022-09-30T17:57:55;16.00;94.20
19019;DHT22;9642;50.842;4.348;2022-09-30T18:00:22;15.90;94.30
19019;DHT22;9642;50.842;4.348;2022-09-30T18:02:48;15.80;94.60
19019;DHT22;9642;50.842;4.348;2022-09-30T18:05:14;15.80;94.70
19019;DHT22;9642;50.842;4.348;2022-09-30T18:07:40;15.80;94.60
19019;DHT22;9642;50.842;4.348;2022-09-30T18:10:06;15.90;94.50
19019;DHT22;9642;50.842;4.348;2022-09-30T18:12:32;15.90;94.30
19019;DHT22;9642;50.842;4.348;2022-09-30T18:15:00;16.00;94.30
19019;DHT22;9642;50.842;4.348;2022-09-30T18:17:26;15.90;94.40
19019;DHT22;9642;50.842;4.348;2022-09-30T18:19:52;15.90;94.40
19019;DHT22;9642;50.842;4.348;2022-09-30T18:22:18;15.90;94.60
19019;DHT22;9642;50.842;4.348;2022-09-30T18:24:45;15.90;94.60
19019;DHT22;9642;50.842;4.348;2022-09-30T18:27:29;15.80;94.80
19019;DHT22;9642;50.842;4.348;2022-09-30T18:29:59;15.90;94.60
19019;DHT22;9642;50.842;4.348;2022-09-30T18:32:30;15.70;95.40
19019;DHT22;9642;50.842;4.348;2022-09-30T18:34:55;15.80;94.90
19019;DHT22;9642;50.842;4.348;2022-09-30T18:37:23;16.00;94.70
19019;DHT22;9642;50.842;4.348;2022-09-30T18:39:51;16.00;94.60
19019;DHT22;9642;50.842;4.348;2022-09-30T18:42:18;16.00;94.70
19019;DHT22;9642;50.842;4.348;2022-09-30T18:44:46;16.00;94.70
19019;DHT22;9642;50.842;4.348;2022-09-30T18:47:13;16.00;94.60
19019;DHT22;9642;50.842;4.348;2022-09-30T18:49:42;16.00;94.50
19019;DHT22;9642;50.842;4.348;2022-09-30T18:52:09;16.00;94.60
19019;DHT22;9642;50.842;4.348;2022-09-30T18:54:35;16.00;94.60
19019;DHT22;9642;50.842;4.348;2022-09-30T18:57:01;16.00;94.70
19019;DHT22;9642;50.842;4.348;2022-09-30T18:59:27;16.00;94.60
19019;DHT22;9642;50.842;4.348;2022-09-30T19:01:52;16.10;94.40
19019;DHT22;9642;50.842;4.348;2022-09-30T19:04:20;15.80;94.80